Simcha — PE7688 — position and weather

sailwx.info

Track history (hours):
 
Tides and Currents Weather Stations Pressure Air Temp Water Temp Dewpoint Dewpoint Depression Visibility Wind Speed Wind Dir Waves Ship Positions

Simcha

Last reported at 2016-Jul-21 13:19 UTC. Time now 2016-Jul-28 06:43 UTC.
Position N 50°04' E 008°59'.

Length 110 m.

Type: Ship. MMSI: 244780014.

Date/timePositionNaut miles runAvg speedWind from/ knotsBaromVisibWave heightAir tempDewpointWater temp
2016-Jul-21 13:19N 50°04' E 008°59'3 3.3
2016-Jul-21 12:33N 50°06' E 008°57'3 3.3
2016-Jul-21 11:33N 50°08' E 008°52'2 2.3
2016-Jul-21 10:33N 50°08' E 008°48'  
2016-Jul-14 16:08N 51°10' E 006°48'2 3.8
2016-Jul-14 15:33N 51°11' E 006°45'27 3.2
2016-Jul-14 07:16N 51°37' E 006°35'3 3.6
2016-Jul-14 06:33N 51°40' E 006°34'61 2.9
2016-Jul-13 09:31N 51°50' E 004°57'8 8.3
2016-Jul-13 08:33N 51°49' E 004°44'8 7.3
2016-Jul-13 07:30N 51°50' E 004°32'8 7.9
2016-Jul-13 06:27N 51°52' E 004°19'7 7.1
2016-Jul-13 05:30N 51°56' E 004°10'5 4.9
2016-Jul-13 04:31N 51°56' E 004°02'0 0.0
2016-Jul-13 03:33N 51°56' E 004°02'0 0.0
2016-Jul-13 02:33N 51°56' E 004°02'0 0.0
2016-Jul-13 01:33N 51°56' E 004°02'0 0.0
2016-Jul-13 00:33N 51°56' E 004°02'0 0.0
2016-Jul-12 23:33N 51°56' E 004°02'0 0.1
2016-Jul-12 22:28N 51°56' E 004°02'0 0.0
2016-Jul-12 20:20N 51°56' E 004°02'0 0.1
2016-Jul-12 19:29N 51°56' E 004°02'0 0.2
2016-Jul-12 18:32N 51°56' E 004°02'0 0.0
2016-Jul-12 17:33N 51°56' E 004°02'1 0.7
2016-Jul-12 16:33N 51°56' E 004°03'8 7.9
2016-Jul-12 15:33N 51°52' E 004°15'10 9.2
2016-Jul-12 14:28N 51°50' E 004°30'6 6.2
2016-Jul-12 13:33N 51°48' E 004°39'  
Track history (hours):
 
Tides and Currents Weather Stations Pressure Air Temp Water Temp Dewpoint Dewpoint Depression Visibility Wind Speed Wind Dir Waves Ship Positions

Simcha

Last reported at 2016-Jul-21 13:19 UTC. Time now 2016-Jul-28 06:43 UTC.
Position N 50°04' E 008°59'.

Length 110 m.

Type: Ship. MMSI: 244780014.

Date/timePositionNaut miles runAvg speedWind from/ knotsBaromVisibWave heightAir tempDewpointWater temp
2016-Jul-21 13:19N 50°04' E 008°59'3 3.3
2016-Jul-21 12:33N 50°06' E 008°57'3 3.3
2016-Jul-21 11:33N 50°08' E 008°52'2 2.3
2016-Jul-21 10:33N 50°08' E 008°48'  
2016-Jul-14 16:08N 51°10' E 006°48'2 3.8
2016-Jul-14 15:33N 51°11' E 006°45'27 3.2
2016-Jul-14 07:16N 51°37' E 006°35'3 3.6
2016-Jul-14 06:33N 51°40' E 006°34'61 2.9
2016-Jul-13 09:31N 51°50' E 004°57'8 8.3
2016-Jul-13 08:33N 51°49' E 004°44'8 7.3
2016-Jul-13 07:30N 51°50' E 004°32'8 7.9
2016-Jul-13 06:27N 51°52' E 004°19'7 7.1
2016-Jul-13 05:30N 51°56' E 004°10'5 4.9
2016-Jul-13 04:31N 51°56' E 004°02'0 0.0
2016-Jul-13 03:33N 51°56' E 004°02'0 0.0
2016-Jul-13 02:33N 51°56' E 004°02'0 0.0
2016-Jul-13 01:33N 51°56' E 004°02'0 0.0
2016-Jul-13 00:33N 51°56' E 004°02'0 0.0
2016-Jul-12 23:33N 51°56' E 004°02'0 0.1
2016-Jul-12 22:28N 51°56' E 004°02'0 0.0
2016-Jul-12 20:20N 51°56' E 004°02'0 0.1
2016-Jul-12 19:29N 51°56' E 004°02'0 0.2
2016-Jul-12 18:32N 51°56' E 004°02'0 0.0
2016-Jul-12 17:33N 51°56' E 004°02'1 0.7
2016-Jul-12 16:33N 51°56' E 004°03'8 7.9
2016-Jul-12 15:33N 51°52' E 004°15'10 9.2
2016-Jul-12 14:28N 51°50' E 004°30'6 6.2
2016-Jul-12 13:33N 51°48' E 004°39'  

Dump ship's entire track history